• Join FlightAware (Why Join?)
  • Login
  • US Flag 
02:41PM EDT


 

Airport Tracker/Info


-or-


 

Live Flight TrackerFlight Track Log ✈ UAL538 ✈ 24-Apr-2013 ✈ KDEN - KDSM

Flight Track Log - Related Links

Times and Time Zones

All times are in EDT time to prevent confusion due to time zone crossing. See the UAL538 flight status page for this flight to view local times or setup timezone preferences in your user account.

Time Position Orientation Groundspeed Altitude Reporting Facility
EDT Latitude Longitude Course Direction KTS MPH feet Rate Location/Type
10:19PM 39.8767 -104.6050 79° East 210 242 6,500  Level Denver Center
10:20PM 39.8903 -104.5244 78° East 218 251 8,200 1,680 Climbing Denver Center
10:21PM 39.9000 -104.4261 83° East 289 333 10,000 1,680 Climbing Denver Center
10:22PM 39.9322 -104.2235 78° East  Level FlightAware Approximate
10:22PM 39.8844 -104.3094 100° East 330 380 11,700  Level Denver Center
10:23PM 39.9570 -104.0746 78° East  Level FlightAware Approximate
10:23PM 39.8650 -104.1672 100° East 368 423 14,400  Level Denver Center
10:24PM 39.9843 -103.9264 79° East  Level FlightAware Approximate
10:24PM 39.8525 -104.0289 97° East 385 443 16,900  Level Denver Center
10:25PM 39.9211 -103.9156 52° Northeast 375 432 18,800 1,800 Climbing Denver Center
10:26PM 39.9925 -103.8094 49° Northeast 392 451 20,600 1,620 Climbing Denver Center
10:27PM 40.0353 -103.6772 67° East 401 461 22,200 1,440 Climbing Denver Center
10:28PM 40.0614 -103.5219 78° East 433 498 23,600 1,320 Climbing Denver Center
10:30PM 40.0878 -103.3592 78° East 452 520 25,000 1,260 Climbing Denver Center
10:31PM 40.1153 -103.1919 78° East 465 535 26,300 1,260 Climbing Denver Center
10:32PM 40.1417 -103.0214 79° East 472 543 27,600 1,020 Climbing Denver Center
10:33PM 40.1653 -102.8750 78° East 487 560 28,500 1,080 Climbing Denver Center
10:34PM 40.2003 -102.6461 79° East 498 573 29,900 1,380 Climbing Denver Center
10:35PM 40.2272 -102.4758 78° East 500 575 31,400 1,320 Climbing Denver Center
10:36PM 40.2578 -102.2769 79° East 500 575 32,700 1,260 Climbing Denver Center
10:37PM 40.2828 -102.1081 79° East 495 570 34,000 1,080 Climbing Denver Center
10:38PM 40.3117 -101.9106 79° East 496 571 35,000 480 Climbing Denver Center
10:39PM 40.3361 -101.7431 79° East 492 566 35,000  Level Denver Center
10:40PM 40.3617 -101.5747 79° East 494 568 35,000  Level Denver Center
10:41PM 40.3903 -101.3756 79° East 499 574 35,000  Level Denver Center
10:42PM 40.4139 -101.2056 80° East 497 572 35,000 -60 Level Denver Center
10:43PM 40.4425 -101.0094 79° East 494 568 34,900  Descending Denver Center
10:44PM 40.4656 -100.8389 80° East 500 575 35,000  Climbing Denver Center
10:45PM 40.4906 -100.6414 80° East 496 571 35,000  Level Denver Center
10:46PM 40.5161 -100.4431 80° East 498 573 35,000  Level Denver Center
10:47PM 40.5414 -100.2447 80° East 497 572 35,000  Level Denver Center
10:48PM 40.5625 -100.0719 81° East 502 578 35,000  Level Denver Center
10:49PM 40.5867 -99.8708 81° East 503 579 35,000  Level Denver Center
10:50PM 40.6081 -99.7008 81° East 500 575 35,000  Level Denver Center
10:51PM 40.6292 -99.5186 81° East 504 580 35,000  Level Denver Center
10:52PM 40.6508 -99.3386 81° East 500 575 35,000  Level Denver Center
10:53PM 40.6714 -99.1572 81° East 503 579 35,000  Level Denver Center
10:54PM 40.6803 -99.0850 81° East 503 579 35,000  Level Minneapolis Center
10:55PM 40.7006 -98.9050 81° East 502 578 35,000  Level Minneapolis Center
10:56PM 40.7208 -98.7247 82° East 502 578 35,000  Level Minneapolis Center
10:57PM 40.7400 -98.5442 82° East 502 578 35,000  Level Minneapolis Center
10:58PM 40.7608 -98.3633 81° East 502 578 35,000  Level Minneapolis Center
10:59PM 40.7797 -98.1806 82° East 504 580 35,000  Level Minneapolis Center
11:00PM 40.8025 -97.9617 82° East 504 580 35,000  Level Minneapolis Center
11:01PM 40.8217 -97.7786 82° East 505 581 35,000  Level Minneapolis Center
11:02PM 40.8406 -97.5956 82° East 504 580 35,000  Level Minneapolis Center
11:03PM 40.8586 -97.4119 83° East 505 581 35,000  Level Minneapolis Center
11:04PM 40.8778 -97.2278 82° East 506 582 35,000  Level Minneapolis Center
11:05PM 40.8956 -97.0428 83° East 507 583 35,000  Level Minneapolis Center
11:06PM 40.9128 -96.8597 83° East 507 583 35,000  Level Minneapolis Center
11:07PM 40.9339 -96.6761 81° East 507 583 35,000  Level Minneapolis Center
11:08PM 40.9667 -96.4975 76° East 505 581 35,000 -1,020 Level Minneapolis Center
11:09PM 41.0069 -96.2828 76° East 503 579 33,000 -2,520 Descending Minneapolis Center
11:10PM 41.0386 -96.0925 77° East 525 604 29,900 -2,340 Descending Minneapolis Center
11:11PM 41.0711 -95.9106 77° East 521 600 28,300 -1,740 Descending Minneapolis Center
11:12PM 41.1006 -95.7394 77° East 493 567 26,400 -1,980 Descending Minneapolis Center
11:13PM 41.1281 -95.5731 78° East 474 545 24,300 -1,980 Descending Minneapolis Center
11:14PM 41.1553 -95.4167 77° East 449 517 22,400 -2,040 Descending Minneapolis Center
11:15PM 41.1856 -95.2367 77° East 423 487 20,200 -1,860 Descending Minneapolis Center
11:16PM 41.2083 -95.0925 78° East 408 470 18,600 -1,560 Descending Minneapolis Center
11:17PM 41.2317 -94.9558 77° East 389 448 17,100 -1,500 Descending Minneapolis Center
11:18PM 41.2519 -94.8231 78° East 375 432 15,600 -1,620 Descending Minneapolis Center
11:18PM 41.2661 -94.7744 69° East 372 428 15,100 -1,560 Descending Minneapolis Center
11:19PM 41.2731 -94.6925 84° East 366 421 14,000 -1,620 Descending Minneapolis Center
11:20PM 41.2906 -94.6175 73° East 356 410 13,200 -1,680 Descending Minneapolis Center
11:20PM 41.2978 -94.5483 82° East 357 411 12,300 -1,380 Descending Minneapolis Center
11:21PM 41.3100 -94.4914 74° East 350 403 11,800 -1,380 Descending Minneapolis Center
11:21PM 41.3169 -94.4247 82° East 342 394 10,900 -1,500 Descending Minneapolis Center
11:22PM 41.3275 -94.3681 76° East 340 391 10,300 -1,380 Descending Minneapolis Center
11:22PM 41.3247 -94.3033 93° East 330 380 9,500 -1,440 Descending Minneapolis Center
11:23PM 41.3322 -94.2486 80° East 326 375 8,900 -1,500 Descending Minneapolis Center
11:23PM 41.3275 -94.1861 96° East 320 368 8,000 -1,320 Descending Minneapolis Center
11:24PM 41.3350 -94.1319 80° East 319 367 7,600 -1,380 Descending Minneapolis Center
11:24PM 41.3308 -94.0636 95° East 309 356 6,600 -1,440 Descending Minneapolis Center
11:25PM 41.3381 -94.0236 76° East 307 353 6,200 -1,260 Descending Minneapolis Center
11:25PM 41.3342 -93.9547 94° East 299 344 5,300 -1,200 Descending Minneapolis Center
11:26PM 41.3406 -93.9069 80° East 297 342 5,000 -300 Descending Minneapolis Center
11:26PM 41.3375 -93.8486 94° East 292 336 5,000  Level Minneapolis Center
11:27PM 41.3436 -93.8014 80° East 288 331 5,000  Level Minneapolis Center
11:27PM 41.3397 -93.7447 95° East 264 304 5,000 -120 Level Minneapolis Center
11:28PM 41.3472 -93.7094 74° East 259 298 4,900 -840 Descending Minneapolis Center
11:28PM 41.3436 -93.6525 95° East 254 292 4,200 -900 Descending Minneapolis Center
11:29PM 41.3547 -93.6172 67° East 252 290 4,000 -840 Descending Minneapolis Center
11:29PM 41.3644 -93.5747 73° East 226 260 3,400 -900 Descending Minneapolis Center
11:30PM 41.3825 -93.5481 48° Northeast 217 250 3,100 -900 Descending Minneapolis Center